sensor_id;sensor_type;location;lat;lon;timestamp;P1;durP1;ratioP1;P2;durP2;ratioP2
13807;SDS011;40769;51.512;5.494;2022-10-23T00:00:28;3.08;;;2.78;;
13807;SDS011;40769;51.512;5.494;2022-10-23T00:02:54;3.22;;;2.85;;
13807;SDS011;40769;51.512;5.494;2022-10-23T00:05:21;3.30;;;3.00;;
13807;SDS011;40769;51.512;5.494;2022-10-23T00:07:51;3.72;;;2.88;;
13807;SDS011;40769;51.512;5.494;2022-10-23T00:10:18;3.28;;;2.83;;
13807;SDS011;40769;51.512;5.494;2022-10-23T00:12:44;2.78;;;2.58;;
13807;SDS011;40769;51.512;5.494;2022-10-23T00:15:11;2.80;;;2.58;;
13807;SDS011;40769;51.512;5.494;2022-10-23T00:17:37;2.72;;;2.53;;
13807;SDS011;40769;51.512;5.494;2022-10-23T00:20:03;3.67;;;2.95;;
13807;SDS011;40769;51.512;5.494;2022-10-23T00:22:30;3.20;;;2.90;;
13807;SDS011;40769;51.512;5.494;2022-10-23T00:24:55;3.90;;;2.55;;
13807;SDS011;40769;51.512;5.494;2022-10-23T00:27:21;2.97;;;2.78;;
13807;SDS011;40769;51.512;5.494;2022-10-23T00:29:47;3.10;;;2.80;;
13807;SDS011;40769;51.512;5.494;2022-10-23T00:32:12;2.95;;;2.72;;
13807;SDS011;40769;51.512;5.494;2022-10-23T00:34:38;3.90;;;2.80;;
13807;SDS011;40769;51.512;5.494;2022-10-23T00:37:03;3.20;;;2.90;;
13807;SDS011;40769;51.512;5.494;2022-10-23T00:39:29;3.03;;;2.72;;
13807;SDS011;40769;51.512;5.494;2022-10-23T00:41:55;3.03;;;2.55;;
13807;SDS011;40769;51.512;5.494;2022-10-23T00:46:46;2.60;;;2.40;;
13807;SDS011;40769;51.512;5.494;2022-10-23T00:49:12;2.70;;;2.50;;
13807;SDS011;40769;51.512;5.494;2022-10-23T00:51:42;2.83;;;2.53;;
13807;SDS011;40769;51.512;5.494;2022-10-23T00:54:20;2.45;;;2.25;;
13807;SDS011;40769;51.512;5.494;2022-10-23T00:56:49;2.63;;;2.40;;
13807;SDS011;40769;51.512;5.494;2022-10-23T00:59:16;2.55;;;2.35;;
13807;SDS011;40769;51.512;5.494;2022-10-23T01:01:42;5.25;;;2.75;;
13807;SDS011;40769;51.512;5.494;2022-10-23T01:04:08;3.83;;;3.20;;
13807;SDS011;40769;51.512;5.494;2022-10-23T01:06:41;3.50;;;2.88;;
13807;SDS011;40769;51.512;5.494;2022-10-23T01:14:26;2.80;;;2.42;;
13807;SDS011;40769;51.512;5.494;2022-10-23T01:20:28;2.60;;;2.40;;
13807;SDS011;40769;51.512;5.494;2022-10-23T01:31:16;2.60;;;2.40;;
13807;SDS011;40769;51.512;5.494;2022-10-23T01:33:49;2.42;;;2.20;;
13807;SDS011;40769;51.512;5.494;2022-10-23T01:36:20;2.65;;;2.35;;
13807;SDS011;40769;51.512;5.494;2022-10-23T01:41:34;2.50;;;2.30;;
13807;SDS011;40769;51.512;5.494;2022-10-23T01:44:10;2.90;;;2.25;;
13807;SDS011;40769;51.512;5.494;2022-10-23T01:46:38;3.13;;;2.30;;
13807;SDS011;40769;51.512;5.494;2022-10-23T01:49:07;2.88;;;2.35;;
13807;SDS011;40769;51.512;5.494;2022-10-23T01:51:37;2.40;;;2.20;;
13807;SDS011;40769;51.512;5.494;2022-10-23T01:54:05;2.45;;;2.25;;
13807;SDS011;40769;51.512;5.494;2022-10-23T01:56:34;2.90;;;2.70;;
13807;SDS011;40769;51.512;5.494;2022-10-23T01:59:04;3.28;;;2.42;;
13807;SDS011;40769;51.512;5.494;2022-10-23T02:01:34;3.53;;;2.78;;
13807;SDS011;40769;51.512;5.494;2022-10-23T02:04:04;3.13;;;2.70;;
13807;SDS011;40769;51.512;5.494;2022-10-23T02:06:34;2.60;;;2.40;;
13807;SDS011;40769;51.512;5.494;2022-10-23T02:08:59;3.03;;;2.50;;
13807;SDS011;40769;51.512;5.494;2022-10-23T02:11:25;2.75;;;2.50;;
13807;SDS011;40769;51.512;5.494;2022-10-23T02:16:42;3.22;;;2.35;;
13807;SDS011;40769;51.512;5.494;2022-10-23T02:22:09;2.88;;;2.33;;
13807;SDS011;40769;51.512;5.494;2022-10-23T02:24:48;3.08;;;2.30;;
13807;SDS011;40769;51.512;5.494;2022-10-23T02:27:19;3.40;;;2.50;;
13807;SDS011;40769;51.512;5.494;2022-10-23T02:29:55;2.80;;;2.42;;
13807;SDS011;40769;51.512;5.494;2022-10-23T02:32:26;2.50;;;2.30;;
13807;SDS011;40769;51.512;5.494;2022-10-23T02:34:53;2.50;;;2.30;;
13807;SDS011;40769;51.512;5.494;2022-10-23T02:37:19;2.60;;;2.40;;
13807;SDS011;40769;51.512;5.494;2022-10-23T02:39:44;3.38;;;2.60;;
13807;SDS011;40769;51.512;5.494;2022-10-23T02:50:02;4.18;;;3.60;;
13807;SDS011;40769;51.512;5.494;2022-10-23T03:00:51;2.97;;;2.78;;
13807;SDS011;40769;51.512;5.494;2022-10-23T03:03:27;3.40;;;3.10;;
13807;SDS011;40769;51.512;5.494;2022-10-23T03:05:57;4.20;;;3.67;;
13807;SDS011;40769;51.512;5.494;2022-10-23T03:08:23;4.30;;;3.90;;
13807;SDS011;40769;51.512;5.494;2022-10-23T03:10:55;3.65;;;3.28;;
13807;SDS011;40769;51.512;5.494;2022-10-23T03:13:36;5.43;;;3.17;;
13807;SDS011;40769;51.512;5.494;2022-10-23T03:16:01;3.67;;;3.38;;
13807;SDS011;40769;51.512;5.494;2022-10-23T03:18:27;4.40;;;4.10;;
13807;SDS011;40769;51.512;5.494;2022-10-23T03:20:52;3.20;;;2.90;;
13807;SDS011;40769;51.512;5.494;2022-10-23T03:23:18;3.15;;;2.85;;
13807;SDS011;40769;51.512;5.494;2022-10-23T03:25:43;3.22;;;2.83;;
13807;SDS011;40769;51.512;5.494;2022-10-23T03:28:09;3.47;;;2.83;;
13807;SDS011;40769;51.512;5.494;2022-10-23T03:30:35;4.35;;;3.90;;
13807;SDS011;40769;51.512;5.494;2022-10-23T03:33:00;4.18;;;2.75;;
13807;SDS011;40769;51.512;5.494;2022-10-23T03:35:26;3.15;;;2.85;;
13807;SDS011;40769;51.512;5.494;2022-10-23T03:37:51;4.43;;;2.70;;
13807;SDS011;40769;51.512;5.494;2022-10-23T03:40:19;2.70;;;2.50;;
13807;SDS011;40769;51.512;5.494;2022-10-23T03:42:45;3.03;;;2.63;;
13807;SDS011;40769;51.512;5.494;2022-10-23T03:45:10;2.85;;;2.65;;
13807;SDS011;40769;51.512;5.494;2022-10-23T03:47:36;3.60;;;2.92;;
13807;SDS011;40769;51.512;5.494;2022-10-23T03:50:05;3.42;;;3.10;;
13807;SDS011;40769;51.512;5.494;2022-10-23T03:52:32;2.83;;;2.50;;
13807;SDS011;40769;51.512;5.494;2022-10-23T03:55:01;4.35;;;3.03;;
13807;SDS011;40769;51.512;5.494;2022-10-23T03:57:27;3.28;;;2.97;;
13807;SDS011;40769;51.512;5.494;2022-10-23T03:59:52;3.80;;;3.45;;
13807;SDS011;40769;51.512;5.494;2022-10-23T04:02:18;3.45;;;3.15;;
13807;SDS011;40769;51.512;5.494;2022-10-23T04:04:43;3.20;;;2.60;;
13807;SDS011;40769;51.512;5.494;2022-10-23T04:07:09;3.25;;;2.95;;
13807;SDS011;40769;51.512;5.494;2022-10-23T04:09:34;3.35;;;3.05;;
13807;SDS011;40769;51.512;5.494;2022-10-23T04:12:00;3.20;;;2.90;;
13807;SDS011;40769;51.512;5.494;2022-10-23T04:14:26;2.78;;;2.58;;
13807;SDS011;40769;51.512;5.494;2022-10-23T04:16:51;2.92;;;2.63;;
13807;SDS011;40769;51.512;5.494;2022-10-23T04:19:17;3.83;;;2.95;;
13807;SDS011;40769;51.512;5.494;2022-10-23T04:21:43;4.30;;;2.95;;
13807;SDS011;40769;51.512;5.494;2022-10-23T04:24:09;2.88;;;2.65;;
13807;SDS011;40769;51.512;5.494;2022-10-23T04:26:34;2.40;;;2.20;;
13807;SDS011;40769;51.512;5.494;2022-10-23T04:29:00;3.60;;;3.30;;
13807;SDS011;40769;51.512;5.494;2022-10-23T04:31:25;3.47;;;2.78;;
13807;SDS011;40769;51.512;5.494;2022-10-23T04:33:51;4.47;;;3.17;;
13807;SDS011;40769;51.512;5.494;2022-10-23T04:36:17;3.75;;;3.13;;
13807;SDS011;40769;51.512;5.494;2022-10-23T04:38:42;2.80;;;2.50;;
13807;SDS011;40769;51.512;5.494;2022-10-23T04:41:08;4.22;;;2.97;;
13807;SDS011;40769;51.512;5.494;2022-10-23T04:43:34;2.40;;;2.20;;
13807;SDS011;40769;51.512;5.494;2022-10-23T04:45:59;3.63;;;2.60;;
13807;SDS011;40769;51.512;5.494;2022-10-23T04:48:25;2.22;;;2.03;;
13807;SDS011;40769;51.512;5.494;2022-10-23T04:50:54;3.08;;;2.78;;
13807;SDS011;40769;51.512;5.494;2022-10-23T04:53:21;4.32;;;2.92;;
13807;SDS011;40769;51.512;5.494;2022-10-23T04:55:47;3.10;;;2.78;;
13807;SDS011;40769;51.512;5.494;2022-10-23T04:58:17;2.60;;;2.40;;
13807;SDS011;40769;51.512;5.494;2022-10-23T05:00:43;3.35;;;2.47;;
13807;SDS011;40769;51.512;5.494;2022-10-23T05:03:09;3.05;;;2.75;;
13807;SDS011;40769;51.512;5.494;2022-10-23T05:05:34;2.72;;;2.22;;
13807;SDS011;40769;51.512;5.494;2022-10-23T05:08:00;2.50;;;2.20;;
13807;SDS011;40769;51.512;5.494;2022-10-23T05:10:25;2.60;;;2.40;;
13807;SDS011;40769;51.512;5.494;2022-10-23T05:12:51;2.72;;;2.38;;
13807;SDS011;40769;51.512;5.494;2022-10-23T05:15:16;2.58;;;2.38;;
13807;SDS011;40769;51.512;5.494;2022-10-23T05:17:42;2.30;;;2.10;;
13807;SDS011;40769;51.512;5.494;2022-10-23T05:20:14;2.45;;;2.25;;
13807;SDS011;40769;51.512;5.494;2022-10-23T05:22:42;4.45;;;2.45;;
13807;SDS011;40769;51.512;5.494;2022-10-23T05:25:10;2.63;;;2.42;;
13807;SDS011;40769;51.512;5.494;2022-10-23T05:27:36;4.13;;;2.97;;
13807;SDS011;40769;51.512;5.494;2022-10-23T05:30:03;3.58;;;2.25;;
13807;SDS011;40769;51.512;5.494;2022-10-23T05:32:29;2.47;;;2.08;;
13807;SDS011;40769;51.512;5.494;2022-10-23T05:34:56;2.60;;;2.40;;
13807;SDS011;40769;51.512;5.494;2022-10-23T05:37:23;2.70;;;2.50;;
13807;SDS011;40769;51.512;5.494;2022-10-23T05:39:49;3.92;;;2.70;;
13807;SDS011;40769;51.512;5.494;2022-10-23T05:42:15;2.50;;;2.30;;
13807;SDS011;40769;51.512;5.494;2022-10-23T05:44:41;3.17;;;2.60;;
13807;SDS011;40769;51.512;5.494;2022-10-23T05:47:06;4.05;;;2.90;;
13807;SDS011;40769;51.512;5.494;2022-10-23T05:49:32;2.53;;;2.00;;
13807;SDS011;40769;51.512;5.494;2022-10-23T05:51:58;2.10;;;1.90;;
13807;SDS011;40769;51.512;5.494;2022-10-23T05:54:24;2.67;;;2.25;;
13807;SDS011;40769;51.512;5.494;2022-10-23T05:56:50;2.72;;;2.42;;
13807;SDS011;40769;51.512;5.494;2022-10-23T05:59:16;2.97;;;2.70;;
13807;SDS011;40769;51.512;5.494;2022-10-23T06:01:41;2.90;;;2.60;;
13807;SDS011;40769;51.512;5.494;2022-10-23T06:04:07;3.47;;;2.75;;
13807;SDS011;40769;51.512;5.494;2022-10-23T06:06:33;2.28;;;2.08;;
13807;SDS011;40769;51.512;5.494;2022-10-23T06:09:00;3.53;;;2.50;;
13807;SDS011;40769;51.512;5.494;2022-10-23T06:11:26;4.63;;;2.45;;
13807;SDS011;40769;51.512;5.494;2022-10-23T06:13:52;2.95;;;2.50;;
13807;SDS011;40769;51.512;5.494;2022-10-23T06:16:19;2.97;;;2.60;;
13807;SDS011;40769;51.512;5.494;2022-10-23T06:18:46;3.22;;;2.35;;
13807;SDS011;40769;51.512;5.494;2022-10-23T06:21:12;2.75;;;2.13;;
13807;SDS011;40769;51.512;5.494;2022-10-23T06:23:39;2.50;;;2.30;;
13807;SDS011;40769;51.512;5.494;2022-10-23T06:26:06;2.10;;;1.90;;
13807;SDS011;40769;51.512;5.494;2022-10-23T06:28:33;2.20;;;2.00;;
13807;SDS011;40769;51.512;5.494;2022-10-23T06:30:59;3.30;;;2.20;;
13807;SDS011;40769;51.512;5.494;2022-10-23T06:33:35;3.15;;;2.00;;
13807;SDS011;40769;51.512;5.494;2022-10-23T06:36:01;2.72;;;2.50;;
13807;SDS011;40769;51.512;5.494;2022-10-23T06:38:27;2.17;;;1.98;;
13807;SDS011;40769;51.512;5.494;2022-10-23T06:40:54;2.13;;;1.92;;
13807;SDS011;40769;51.512;5.494;2022-10-23T06:43:20;2.17;;;1.98;;
13807;SDS011;40769;51.512;5.494;2022-10-23T06:45:46;2.45;;;1.75;;
13807;SDS011;40769;51.512;5.494;2022-10-23T06:48:13;3.42;;;2.58;;
13807;SDS011;40769;51.512;5.494;2022-10-23T06:50:42;2.25;;;2.10;;
13807;SDS011;40769;51.512;5.494;2022-10-23T06:53:07;3.15;;;2.50;;
13807;SDS011;40769;51.512;5.494;2022-10-23T06:55:33;2.30;;;2.10;;
13807;SDS011;40769;51.512;5.494;2022-10-23T06:57:59;3.28;;;2.20;;
13807;SDS011;40769;51.512;5.494;2022-10-23T07:00:24;4.53;;;2.47;;
13807;SDS011;40769;51.512;5.494;2022-10-23T07:02:50;2.10;;;1.90;;
13807;SDS011;40769;51.512;5.494;2022-10-23T07:05:17;2.70;;;2.20;;
13807;SDS011;40769;51.512;5.494;2022-10-23T07:07:44;3.00;;;2.65;;
13807;SDS011;40769;51.512;5.494;2022-10-23T07:10:09;3.35;;;2.05;;
13807;SDS011;40769;51.512;5.494;2022-10-23T07:12:35;2.65;;;2.40;;
13807;SDS011;40769;51.512;5.494;2022-10-23T07:15:00;4.07;;;2.50;;
13807;SDS011;40769;51.512;5.494;2022-10-23T07:17:27;2.80;;;2.60;;
13807;SDS011;40769;51.512;5.494;2022-10-23T07:19:53;3.63;;;2.05;;
13807;SDS011;40769;51.512;5.494;2022-10-23T07:22:18;2.67;;;2.00;;
13807;SDS011;40769;51.512;5.494;2022-10-23T07:24:44;3.22;;;2.03;;
13807;SDS011;40769;51.512;5.494;2022-10-23T07:27:09;2.38;;;2.00;;
13807;SDS011;40769;51.512;5.494;2022-10-23T07:29:35;2.90;;;2.60;;
13807;SDS011;40769;51.512;5.494;2022-10-23T07:32:04;2.53;;;2.28;;
13807;SDS011;40769;51.512;5.494;2022-10-23T07:34:30;2.75;;;2.42;;
13807;SDS011;40769;51.512;5.494;2022-10-23T07:36:56;4.65;;;3.13;;
13807;SDS011;40769;51.512;5.494;2022-10-23T07:39:21;3.58;;;3.20;;
13807;SDS011;40769;51.512;5.494;2022-10-23T07:41:47;2.25;;;1.98;;
13807;SDS011;40769;51.512;5.494;2022-10-23T07:44:13;2.50;;;2.30;;
13807;SDS011;40769;51.512;5.494;2022-10-23T07:46:39;2.85;;;2.30;;
13807;SDS011;40769;51.512;5.494;2022-10-23T07:49:05;2.53;;;2.22;;
13807;SDS011;40769;51.512;5.494;2022-10-23T07:51:31;2.80;;;2.38;;
13807;SDS011;40769;51.512;5.494;2022-10-23T07:53:56;3.15;;;2.60;;
13807;SDS011;40769;51.512;5.494;2022-10-23T07:56:22;3.83;;;3.42;;
13807;SDS011;40769;51.512;5.494;2022-10-23T07:58:50;2.80;;;2.60;;
13807;SDS011;40769;51.512;5.494;2022-10-23T08:01:24;3.40;;;3.13;;
13807;SDS011;40769;51.512;5.494;2022-10-23T08:03:55;3.63;;;2.97;;
13807;SDS011;40769;51.512;5.494;2022-10-23T08:06:20;3.95;;;2.67;;
13807;SDS011;40769;51.512;5.494;2022-10-23T08:08:46;2.75;;;2.55;;
13807;SDS011;40769;51.512;5.494;2022-10-23T08:11:12;2.67;;;2.47;;
13807;SDS011;40769;51.512;5.494;2022-10-23T08:13:39;2.40;;;2.20;;
13807;SDS011;40769;51.512;5.494;2022-10-23T08:16:05;2.53;;;2.25;;
13807;SDS011;40769;51.512;5.494;2022-10-23T08:18:31;2.50;;;2.30;;
13807;SDS011;40769;51.512;5.494;2022-10-23T08:21:01;4.32;;;3.15;;
13807;SDS011;40769;51.512;5.494;2022-10-23T08:23:27;3.53;;;3.20;;
13807;SDS011;40769;51.512;5.494;2022-10-23T08:25:57;2.45;;;2.25;;
13807;SDS011;40769;51.512;5.494;2022-10-23T08:28:24;3.50;;;2.90;;
13807;SDS011;40769;51.512;5.494;2022-10-23T08:30:50;3.35;;;3.05;;
13807;SDS011;40769;51.512;5.494;2022-10-23T08:33:16;2.90;;;2.63;;
13807;SDS011;40769;51.512;5.494;2022-10-23T08:35:41;3.95;;;3.03;;
13807;SDS011;40769;51.512;5.494;2022-10-23T08:38:07;3.13;;;2.63;;
13807;SDS011;40769;51.512;5.494;2022-10-23T08:40:34;3.53;;;2.92;;
13807;SDS011;40769;51.512;5.494;2022-10-23T08:45:44;3.90;;;2.97;;
13807;SDS011;40769;51.512;5.494;2022-10-23T08:50:49;2.60;;;2.33;;
13807;SDS011;40769;51.512;5.494;2022-10-23T08:53:31;3.50;;;3.15;;
13807;SDS011;40769;51.512;5.494;2022-10-23T08:56:03;5.22;;;3.28;;
13807;SDS011;40769;51.512;5.494;2022-10-23T08:58:35;3.10;;;2.90;;
13807;SDS011;40769;51.512;5.494;2022-10-23T09:03:57;2.70;;;2.45;;
13807;SDS011;40769;51.512;5.494;2022-10-23T09:06:47;3.30;;;3.00;;
13807;SDS011;40769;51.512;5.494;2022-10-23T09:11:45;3.35;;;2.50;;
13807;SDS011;40769;51.512;5.494;2022-10-23T09:17:23;2.50;;;2.30;;
13807;SDS011;40769;51.512;5.494;2022-10-23T09:20:10;3.95;;;1.95;;
13807;SDS011;40769;51.512;5.494;2022-10-23T09:22:39;2.20;;;2.00;;
13807;SDS011;40769;51.512;5.494;2022-10-23T09:25:10;2.85;;;2.65;;
13807;SDS011;40769;51.512;5.494;2022-10-23T09:27:45;2.85;;;2.55;;
13807;SDS011;40769;51.512;5.494;2022-10-23T09:30:12;2.65;;;2.20;;
13807;SDS011;40769;51.512;5.494;2022-10-23T09:32:50;3.22;;;2.92;;
13807;SDS011;40769;51.512;5.494;2022-10-23T09:35:20;3.28;;;2.97;;
13807;SDS011;40769;51.512;5.494;2022-10-23T09:37:47;2.50;;;2.30;;
13807;SDS011;40769;51.512;5.494;2022-10-23T09:42:56;2.53;;;2.33;;
13807;SDS011;40769;51.512;5.494;2022-10-23T09:45:28;2.38;;;2.17;;
13807;SDS011;40769;51.512;5.494;2022-10-23T09:48:07;3.03;;;2.70;;
13807;SDS011;40769;51.512;5.494;2022-10-23T09:50:44;2.47;;;2.28;;
13807;SDS011;40769;51.512;5.494;2022-10-23T09:53:14;2.22;;;2.03;;
13807;SDS011;40769;51.512;5.494;2022-10-23T09:55:52;2.72;;;2.20;;
13807;SDS011;40769;51.512;5.494;2022-10-23T09:58:21;2.90;;;2.65;;
13807;SDS011;40769;51.512;5.494;2022-10-23T10:00:53;2.45;;;2.25;;
13807;SDS011;40769;51.512;5.494;2022-10-23T10:03:23;2.20;;;2.00;;
13807;SDS011;40769;51.512;5.494;2022-10-23T10:05:53;2.75;;;2.25;;
13807;SDS011;40769;51.512;5.494;2022-10-23T10:11:14;4.03;;;2.80;;
13807;SDS011;40769;51.512;5.494;2022-10-23T10:13:57;2.45;;;2.10;;
13807;SDS011;40769;51.512;5.494;2022-10-23T10:16:49;2.20;;;2.00;;
13807;SDS011;40769;51.512;5.494;2022-10-23T10:27:48;3.85;;;2.25;;
13807;SDS011;40769;51.512;5.494;2022-10-23T10:33:32;2.40;;;2.10;;
13807;SDS011;40769;51.512;5.494;2022-10-23T10:39:13;2.40;;;2.03;;
13807;SDS011;40769;51.512;5.494;2022-10-23T10:42:30;2.13;;;1.70;;
13807;SDS011;40769;51.512;5.494;2022-10-23T10:50:29;2.95;;;2.10;;
13807;SDS011;40769;51.512;5.494;2022-10-23T10:55:52;2.53;;;1.85;;
13807;SDS011;40769;51.512;5.494;2022-10-23T11:04:10;2.55;;;2.10;;
13807;SDS011;40769;51.512;5.494;2022-10-23T11:06:42;2.47;;;2.28;;
13807;SDS011;40769;51.512;5.494;2022-10-23T11:09:28;2.58;;;2.05;;
13807;SDS011;40769;51.512;5.494;2022-10-23T11:11:54;3.42;;;2.20;;
13807;SDS011;40769;51.512;5.494;2022-10-23T11:14:24;3.05;;;2.47;;
13807;SDS011;40769;51.512;5.494;2022-10-23T11:38:29;2.58;;;1.77;;
13807;SDS011;40769;51.512;5.494;2022-10-23T11:40:59;1.92;;;1.70;;
13807;SDS011;40769;51.512;5.494;2022-10-23T11:43:31;2.85;;;2.05;;
13807;SDS011;40769;51.512;5.494;2022-10-23T11:48:59;1.60;;;1.50;;
13807;SDS011;40769;51.512;5.494;2022-10-23T11:51:40;1.92;;;1.73;;
13807;SDS011;40769;51.512;5.494;2022-10-23T11:54:17;5.00;;;1.88;;
13807;SDS011;40769;51.512;5.494;2022-10-23T11:56:49;2.95;;;2.10;;
13807;SDS011;40769;51.512;5.494;2022-10-23T11:59:35;3.00;;;1.90;;
13807;SDS011;40769;51.512;5.494;2022-10-23T12:02:34;1.92;;;1.60;;
13807;SDS011;40769;51.512;5.494;2022-10-23T12:05:36;1.60;;;1.33;;
13807;SDS011;40769;51.512;5.494;2022-10-23T12:08:05;1.80;;;1.70;;
13807;SDS011;40769;51.512;5.494;2022-10-23T12:10:44;1.38;;;1.27;;
13807;SDS011;40769;51.512;5.494;2022-10-23T12:16:07;1.27;;;1.10;;
13807;SDS011;40769;51.512;5.494;2022-10-23T12:18:43;3.28;;;1.65;;
13807;SDS011;40769;51.512;5.494;2022-10-23T12:21:32;1.73;;;1.50;;
13807;SDS011;40769;51.512;5.494;2022-10-23T12:26:55;1.67;;;1.25;;
13807;SDS011;40769;51.512;5.494;2022-10-23T12:30:00;1.73;;;1.30;;
13807;SDS011;40769;51.512;5.494;2022-10-23T12:38:19;1.60;;;1.30;;
13807;SDS011;40769;51.512;5.494;2022-10-23T12:40:53;1.95;;;1.65;;
13807;SDS011;40769;51.512;5.494;2022-10-23T12:43:28;2.42;;;1.70;;
13807;SDS011;40769;51.512;5.494;2022-10-23T12:48:50;1.70;;;1.60;;
13807;SDS011;40769;51.512;5.494;2022-10-23T12:51:30;2.15;;;1.77;;
13807;SDS011;40769;51.512;5.494;2022-10-23T12:53:58;1.95;;;1.73;;
13807;SDS011;40769;51.512;5.494;2022-10-23T12:56:24;1.60;;;1.40;;
13807;SDS011;40769;51.512;5.494;2022-10-23T12:58:52;1.67;;;1.58;;
13807;SDS011;40769;51.512;5.494;2022-10-23T13:01:29;1.45;;;1.35;;
13807;SDS011;40769;51.512;5.494;2022-10-23T13:06:45;2.35;;;1.55;;
13807;SDS011;40769;51.512;5.494;2022-10-23T13:09:23;2.13;;;1.30;;
13807;SDS011;40769;51.512;5.494;2022-10-23T13:11:54;1.92;;;1.55;;
13807;SDS011;40769;51.512;5.494;2022-10-23T13:14:31;2.17;;;1.42;;
13807;SDS011;40769;51.512;5.494;2022-10-23T13:17:05;3.17;;;1.95;;
13807;SDS011;40769;51.512;5.494;2022-10-23T13:19:33;3.83;;;1.70;;
13807;SDS011;40769;51.512;5.494;2022-10-23T13:21:59;3.88;;;1.65;;
13807;SDS011;40769;51.512;5.494;2022-10-23T13:24:28;1.73;;;1.60;;
13807;SDS011;40769;51.512;5.494;2022-10-23T13:26:55;1.80;;;1.33;;
13807;SDS011;40769;51.512;5.494;2022-10-23T13:29:22;2.03;;;1.58;;
13807;SDS011;40769;51.512;5.494;2022-10-23T13:31:54;2.25;;;1.48;;
13807;SDS011;40769;51.512;5.494;2022-10-23T13:34:21;1.48;;;1.30;;
13807;SDS011;40769;51.512;5.494;2022-10-23T13:37:32;1.73;;;1.13;;
13807;SDS011;40769;51.512;5.494;2022-10-23T13:40:00;2.00;;;1.58;;
13807;SDS011;40769;51.512;5.494;2022-10-23T13:42:28;1.60;;;1.50;;
13807;SDS011;40769;51.512;5.494;2022-10-23T13:44:54;2.00;;;1.40;;
13807;SDS011;40769;51.512;5.494;2022-10-23T13:47:20;1.35;;;1.23;;
13807;SDS011;40769;51.512;5.494;2022-10-23T13:49:45;1.30;;;1.20;;
13807;SDS011;40769;51.512;5.494;2022-10-23T13:52:15;1.75;;;1.23;;
13807;SDS011;40769;51.512;5.494;2022-10-23T13:54:44;1.52;;;1.25;;
13807;SDS011;40769;51.512;5.494;2022-10-23T13:57:13;1.48;;;1.33;;
13807;SDS011;40769;51.512;5.494;2022-10-23T13:59:39;1.20;;;1.10;;
13807;SDS011;40769;51.512;5.494;2022-10-23T14:02:14;1.33;;;1.23;;
13807;SDS011;40769;51.512;5.494;2022-10-23T14:04:43;1.42;;;1.33;;
13807;SDS011;40769;51.512;5.494;2022-10-23T14:07:10;2.00;;;1.40;;
13807;SDS011;40769;51.512;5.494;2022-10-23T14:09:36;1.88;;;1.60;;
13807;SDS011;40769;51.512;5.494;2022-10-23T14:12:01;1.67;;;1.30;;
13807;SDS011;40769;51.512;5.494;2022-10-23T14:14:27;5.30;;;2.28;;
13807;SDS011;40769;51.512;5.494;2022-10-23T14:16:52;1.48;;;1.33;;
13807;SDS011;40769;51.512;5.494;2022-10-23T14:19:18;1.55;;;1.27;;
13807;SDS011;40769;51.512;5.494;2022-10-23T14:21:44;1.50;;;1.27;;
13807;SDS011;40769;51.512;5.494;2022-10-23T14:24:09;1.83;;;1.10;;
13807;SDS011;40769;51.512;5.494;2022-10-23T14:26:35;1.20;;;1.00;;
13807;SDS011;40769;51.512;5.494;2022-10-23T14:29:02;2.88;;;1.23;;
13807;SDS011;40769;51.512;5.494;2022-10-23T14:31:27;2.22;;;1.33;;
13807;SDS011;40769;51.512;5.494;2022-10-23T14:33:54;1.73;;;1.40;;
13807;SDS011;40769;51.512;5.494;2022-10-23T14:36:21;1.70;;;1.30;;
13807;SDS011;40769;51.512;5.494;2022-10-23T14:38:47;3.00;;;1.20;;
13807;SDS011;40769;51.512;5.494;2022-10-23T14:41:14;1.55;;;1.40;;
13807;SDS011;40769;51.512;5.494;2022-10-23T14:43:41;2.42;;;1.40;;
13807;SDS011;40769;51.512;5.494;2022-10-23T14:46:14;1.40;;;1.30;;
13807;SDS011;40769;51.512;5.494;2022-10-23T14:48:41;1.83;;;1.45;;
13807;SDS011;40769;51.512;5.494;2022-10-23T14:51:14;1.75;;;1.38;;
13807;SDS011;40769;51.512;5.494;2022-10-23T14:53:56;1.50;;;1.40;;
13807;SDS011;40769;51.512;5.494;2022-10-23T14:56:25;1.85;;;1.50;;
13807;SDS011;40769;51.512;5.494;2022-10-23T14:58:51;1.40;;;1.30;;
13807;SDS011;40769;51.512;5.494;2022-10-23T15:01:17;2.50;;;1.40;;
13807;SDS011;40769;51.512;5.494;2022-10-23T15:03:42;2.55;;;1.70;;
13807;SDS011;40769;51.512;5.494;2022-10-23T15:06:08;2.50;;;1.40;;
13807;SDS011;40769;51.512;5.494;2022-10-23T15:08:34;2.10;;;1.35;;
13807;SDS011;40769;51.512;5.494;2022-10-23T15:11:01;1.30;;;1.20;;
13807;SDS011;40769;51.512;5.494;2022-10-23T15:13:28;2.13;;;1.58;;
13807;SDS011;40769;51.512;5.494;2022-10-23T15:16:01;2.05;;;1.80;;
13807;SDS011;40769;51.512;5.494;2022-10-23T15:18:28;1.40;;;1.30;;
13807;SDS011;40769;51.512;5.494;2022-10-23T15:20:54;1.48;;;1.30;;
13807;SDS011;40769;51.512;5.494;2022-10-23T15:23:19;2.50;;;1.50;;
13807;SDS011;40769;51.512;5.494;2022-10-23T15:25:53;1.40;;;1.30;;
13807;SDS011;40769;51.512;5.494;2022-10-23T15:28:19;1.65;;;1.35;;
13807;SDS011;40769;51.512;5.494;2022-10-23T15:30:45;2.15;;;1.60;;
13807;SDS011;40769;51.512;5.494;2022-10-23T15:33:10;1.70;;;1.60;;
13807;SDS011;40769;51.512;5.494;2022-10-23T15:35:36;1.65;;;1.30;;
13807;SDS011;40769;51.512;5.494;2022-10-23T15:38:02;1.98;;;1.50;;
13807;SDS011;40769;51.512;5.494;2022-10-23T15:40:27;2.83;;;2.00;;
13807;SDS011;40769;51.512;5.494;2022-10-23T15:42:53;1.77;;;1.52;;
13807;SDS011;40769;51.512;5.494;2022-10-23T15:45:18;1.70;;;1.60;;
13807;SDS011;40769;51.512;5.494;2022-10-23T15:47:44;2.45;;;1.55;;
13807;SDS011;40769;51.512;5.494;2022-10-23T15:50:09;2.10;;;1.75;;
13807;SDS011;40769;51.512;5.494;2022-10-23T15:52:35;1.88;;;1.50;;
13807;SDS011;40769;51.512;5.494;2022-10-23T15:55:01;2.03;;;1.40;;
13807;SDS011;40769;51.512;5.494;2022-10-23T15:57:27;1.42;;;1.33;;
13807;SDS011;40769;51.512;5.494;2022-10-23T15:59:52;2.55;;;1.70;;
13807;SDS011;40769;51.512;5.494;2022-10-23T16:02:18;1.80;;;1.58;;
13807;SDS011;40769;51.512;5.494;2022-10-23T16:04:44;2.10;;;1.40;;
13807;SDS011;40769;51.512;5.494;2022-10-23T16:07:10;3.15;;;2.00;;
13807;SDS011;40769;51.512;5.494;2022-10-23T16:09:35;1.73;;;1.63;;
13807;SDS011;40769;51.512;5.494;2022-10-23T16:12:01;3.80;;;1.92;;
13807;SDS011;40769;51.512;5.494;2022-10-23T16:14:27;3.45;;;2.17;;
13807;SDS011;40769;51.512;5.494;2022-10-23T16:16:52;7.55;;;6.95;;
13807;SDS011;40769;51.512;5.494;2022-10-23T16:19:18;4.50;;;4.20;;
13807;SDS011;40769;51.512;5.494;2022-10-23T16:21:44;2.50;;;2.30;;
13807;SDS011;40769;51.512;5.494;2022-10-23T16:24:09;1.95;;;1.77;;
13807;SDS011;40769;51.512;5.494;2022-10-23T16:26:36;2.45;;;1.92;;
13807;SDS011;40769;51.512;5.494;2022-10-23T16:29:03;3.50;;;1.77;;
13807;SDS011;40769;51.512;5.494;2022-10-23T16:31:30;2.17;;;2.00;;
13807;SDS011;40769;51.512;5.494;2022-10-23T16:33:57;2.05;;;1.73;;
13807;SDS011;40769;51.512;5.494;2022-10-23T16:36:24;2.10;;;1.85;;
13807;SDS011;40769;51.512;5.494;2022-10-23T16:38:49;2.15;;;1.95;;
13807;SDS011;40769;51.512;5.494;2022-10-23T16:41:15;2.05;;;1.95;;
13807;SDS011;40769;51.512;5.494;2022-10-23T16:43:40;2.50;;;2.17;;
13807;SDS011;40769;51.512;5.494;2022-10-23T16:46:08;2.15;;;1.95;;
13807;SDS011;40769;51.512;5.494;2022-10-23T16:48:37;2.08;;;1.92;;
13807;SDS011;40769;51.512;5.494;2022-10-23T16:51:04;2.42;;;2.22;;
13807;SDS011;40769;51.512;5.494;2022-10-23T16:53:31;2.30;;;2.10;;
13807;SDS011;40769;51.512;5.494;2022-10-23T16:55:57;2.75;;;1.90;;
13807;SDS011;40769;51.512;5.494;2022-10-23T16:58:23;2.40;;;2.20;;
13807;SDS011;40769;51.512;5.494;2022-10-23T17:00:57;1.92;;;1.70;;
13807;SDS011;40769;51.512;5.494;2022-10-23T17:03:24;2.20;;;2.00;;
13807;SDS011;40769;51.512;5.494;2022-10-23T17:05:49;3.25;;;2.10;;
13807;SDS011;40769;51.512;5.494;2022-10-23T17:08:15;2.10;;;1.90;;
13807;SDS011;40769;51.512;5.494;2022-10-23T17:10:41;2.10;;;1.90;;